Time;durP1;ratioP1;P1;durP2;ratioP2;P2;SDS_P1;SDS_P2;PMS_P1;PMS_P2;Temp;Humidity;BMP_temperature;BMP_pressure;BME280_temperature;BME280_humidity;BME280_pressure;Samples;Min_cycle;Max_cycle;Signal;HPM_P1;HPM_P2
2024/04/14 00:00:36;;;;;;;6.70;2.78;;;18.20;97.80;;;;;;5406506;26;20010;-80
2024/04/14 00:03:02;;;;;;;3.67;2.30;;;18.10;97.00;;;;;;5404167;26;20003;-81
2024/04/14 00:05:27;;;;;;;3.03;2.40;;;18.00;96.30;;;;;;5410665;26;20017;-80
2024/04/14 00:07:53;;;;;;;6.95;1.75;;;18.00;95.40;;;;;;5437733;26;20454;-81
2024/04/14 00:10:18;;;;;;;5.75;1.65;;;17.90;94.20;;;;;;5432023;26;20448;-80
2024/04/14 00:12:44;;;;;;;3.70;1.75;;;18.00;93.90;;;;;;5407196;26;20003;-80
2024/04/14 00:15:09;;;;;;;3.47;2.17;;;17.80;94.10;;;;;;5430560;26;20343;-80
2024/04/14 00:17:36;;;;;;;3.78;2.00;;;17.70;94.70;;;;;;5397813;26;20392;-80
2024/04/14 00:20:03;;;;;;;2.05;1.27;;;17.60;94.00;;;;;;5437184;26;19999;-80
2024/04/14 00:22:29;;;;;;;2.13;1.50;;;17.60;94.00;;;;;;5370457;26;20459;-80
2024/04/14 00:24:57;;;;;;;5.00;1.85;;;17.40;93.20;;;;;;5377853;26;20013;-81
2024/04/14 00:27:23;;;;;;;4.78;1.80;;;17.30;93.50;;;;;;5408002;26;20054;-81
2024/04/14 00:29:48;;;;;;;2.90;0.95;;;17.30;92.60;;;;;;5402962;26;20292;-80
2024/04/14 00:32:14;;;;;;;2.38;1.10;;;17.30;92.90;;;;;;5377792;26;20056;-81
2024/04/14 00:34:40;;;;;;;2.53;1.23;;;17.20;90.70;;;;;;5408824;26;20011;-80
2024/04/14 00:37:06;;;;;;;4.40;1.13;;;17.20;92.10;;;;;;5376431;26;20028;-81
2024/04/14 00:39:31;;;;;;;2.25;1.35;;;17.20;90.70;;;;;;5398658;26;19995;-82
2024/04/14 00:41:58;;;;;;;3.35;1.00;;;17.00;90.90;;;;;;5407126;26;20065;-81
2024/04/14 00:44:24;;;;;;;4.32;1.20;;;16.90;91.00;;;;;;5429569;26;20899;-81
2024/04/14 00:46:51;;;;;;;1.90;1.08;;;16.80;91.10;;;;;;5403086;26;19995;-81
2024/04/14 00:49:17;;;;;;;3.45;0.90;;;16.70;91.10;;;;;;5401683;26;20335;-81
2024/04/14 00:51:42;;;;;;;1.35;1.10;;;16.70;91.00;;;;;;5428017;26;20006;-81
2024/04/14 00:54:08;;;;;;;3.10;0.93;;;16.60;91.20;;;;;;5432751;26;20561;-82
2024/04/14 00:56:34;;;;;;;2.67;1.25;;;16.60;91.00;;;;;;5374724;26;20066;-81
2024/04/14 00:59:00;;;;;;;7.35;0.95;;;16.50;91.90;;;;;;5401190;26;19999;-81
2024/04/14 01:01:25;;;;;;;5.10;1.05;;;16.50;91.20;;;;;;5426179;26;20021;-81
2024/04/14 01:03:51;;;;;;;3.38;1.20;;;16.50;90.40;;;;;;5399993;26;20011;-81
2024/04/14 01:06:19;;;;;;;3.60;0.95;;;16.40;90.80;;;;;;5396014;26;20014;-81
2024/04/14 01:08:45;;;;;;;2.13;1.10;;;16.40;91.30;;;;;;5424873;26;20010;-82
2024/04/14 01:11:12;;;;;;;3.42;1.08;;;16.20;90.60;;;;;;5424196;26;20491;-82
2024/04/14 01:13:38;;;;;;;1.58;0.80;;;16.10;90.90;;;;;;5400797;26;20010;-82
2024/04/14 01:16:04;;;;;;;3.10;1.15;;;16.20;90.60;;;;;;5378264;26;20021;-83
2024/04/14 01:18:29;;;;;;;1.13;0.95;;;16.10;91.20;;;;;;5432817;26;20066;-82
2024/04/14 01:20:55;;;;;;;2.22;1.08;;;16.20;91.30;;;;;;5402826;26;20704;-83
2024/04/14 01:23:20;;;;;;;3.67;1.05;;;16.10;90.70;;;;;;5373875;26;20530;-83
2024/04/14 01:25:46;;;;;;;1.95;1.20;;;16.00;90.50;;;;;;5399105;26;20010;-82
2024/04/14 01:28:12;;;;;;;4.60;1.40;;;15.90;90.20;;;;;;5428353;26;19999;-83
2024/04/14 01:30:38;;;;;;;3.50;1.30;;;15.80;90.40;;;;;;5405461;26;20019;-82
2024/04/14 01:33:03;;;;;;;3.35;1.00;;;15.90;91.00;;;;;;5435226;26;20077;-83
2024/04/14 01:35:29;;;;;;;5.10;1.30;;;15.70;90.00;;;;;;5428153;26;20683;-83
2024/04/14 01:37:54;;;;;;;4.07;1.33;;;15.60;89.50;;;;;;5396952;26;20035;-83
2024/04/14 01:40:20;;;;;;;2.95;1.30;;;15.60;89.00;;;;;;5427185;26;20000;-83
2024/04/14 01:42:45;;;;;;;6.75;1.23;;;15.50;91.10;;;;;;5438078;26;21110;-83
2024/04/14 01:45:11;;;;;;;2.60;1.40;;;15.60;90.30;;;;;;5410529;26;20003;-83
2024/04/14 01:47:40;;;;;;;9.60;1.27;;;15.50;90.90;;;;;;5417784;26;20336;-82
2024/04/14 01:50:06;;;;;;;5.07;3.10;;;15.40;90.90;;;;;;5416881;26;20006;-82
2024/04/14 01:52:32;;;;;;;1.42;1.02;;;15.40;90.60;;;;;;5400604;26;20434;-82
2024/04/14 01:54:57;;;;;;;4.15;1.30;;;15.30;90.70;;;;;;5441179;26;20022;-83
2024/04/14 01:57:23;;;;;;;2.35;1.33;;;15.30;90.80;;;;;;5413716;26;20014;-82
2024/04/14 01:59:48;;;;;;;2.55;1.20;;;15.30;90.90;;;;;;5402555;26;19999;-83
2024/04/14 02:02:14;;;;;;;3.35;1.10;;;15.40;91.30;;;;;;5440932;26;20039;-83
2024/04/14 02:04:39;;;;;;;4.65;1.50;;;15.30;91.40;;;;;;5376783;26;20014;-82
2024/04/14 02:07:05;;;;;;;5.28;1.17;;;15.10;91.30;;;;;;5436908;26;20074;-82
2024/04/14 02:09:31;;;;;;;5.38;1.48;;;15.10;91.60;;;;;;5428381;26;20010;-82
2024/04/14 02:11:56;;;;;;;4.00;1.48;;;15.10;91.60;;;;;;5404911;26;20013;-83
2024/04/14 02:14:22;;;;;;;5.65;2.20;;;15.00;91.20;;;;;;5398684;26;20018;-83
2024/04/14 02:16:47;;;;;;;3.25;1.45;;;15.00;92.00;;;;;;5410583;26;20014;-83
2024/04/14 02:19:13;;;;;;;2.60;1.25;;;15.10;92.50;;;;;;5430801;26;19999;-83
2024/04/14 02:21:38;;;;;;;4.20;1.02;;;15.10;91.90;;;;;;5409309;26;20003;-83
2024/04/14 02:24:04;;;;;;;4.53;1.70;;;15.20;92.00;;;;;;5413101;26;20018;-83
2024/04/14 02:26:29;;;;;;;7.47;1.45;;;15.20;91.80;;;;;;5397412;26;20003;-82
2024/04/14 02:28:55;;;;;;;4.65;1.25;;;15.00;91.20;;;;;;5407808;26;20451;-82
2024/04/14 02:31:21;;;;;;;6.03;1.80;;;15.20;91.70;;;;;;5423005;26;20020;-82
2024/04/14 02:33:46;;;;;;;4.68;1.30;;;15.20;91.90;;;;;;5379102;26;20014;-83
2024/04/14 02:36:12;;;;;;;3.55;1.23;;;15.30;92.60;;;;;;5402184;26;19999;-83
2024/04/14 02:38:37;;;;;;;2.45;1.13;;;15.20;91.90;;;;;;5432818;26;20047;-82
2024/04/14 02:41:04;;;;;;;2.70;1.55;;;15.20;92.30;;;;;;5436222;26;20455;-83
2024/04/14 02:43:30;;;;;;;3.75;1.10;;;15.20;91.80;;;;;;5437507;26;20035;-83
2024/04/14 02:45:55;;;;;;;7.10;1.67;;;15.10;92.10;;;;;;5404014;26;20076;-82
2024/04/14 02:48:21;;;;;;;7.60;1.65;;;15.20;92.10;;;;;;5404325;26;20010;-83
2024/04/14 02:50:46;;;;;;;2.90;1.17;;;15.00;91.40;;;;;;5399557;26;20014;-83
2024/04/14 02:53:12;;;;;;;3.90;1.48;;;14.90;91.90;;;;;;5409555;26;20029;-83
2024/04/14 02:55:38;;;;;;;4.72;1.77;;;14.90;92.20;;;;;;5434628;26;20059;-82
2024/04/14 02:58:07;;;;;;;4.85;1.67;;;14.90;92.10;;;;;;5428384;26;19999;-82
2024/04/14 03:00:33;;;;;;;4.93;1.77;;;14.80;91.70;;;;;;5397007;26;20003;-82
2024/04/14 03:02:58;;;;;;;7.68;2.00;;;14.70;92.10;;;;;;5377789;26;20073;-83
2024/04/14 03:05:27;;;;;;;5.95;1.85;;;14.60;92.00;;;;;;5398321;26;20102;-81
2024/04/14 03:07:52;;;;;;;6.03;1.90;;;14.60;92.10;;;;;;5430497;26;20011;-83
2024/04/14 03:10:18;;;;;;;3.63;1.42;;;14.70;92.60;;;;;;5410202;26;20006;-82
2024/04/14 03:12:44;;;;;;;4.95;1.40;;;14.60;92.70;;;;;;5426262;26;20574;-82
2024/04/14 03:15:10;;;;;;;2.75;1.20;;;14.60;92.60;;;;;;5398263;26;20018;-82
2024/04/14 03:17:36;;;;;;;4.63;1.67;;;14.60;92.60;;;;;;5432022;26;20439;-81
2024/04/14 03:20:02;;;;;;;4.47;1.40;;;14.60;92.50;;;;;;5431442;26;20056;-82
2024/04/14 03:22:27;;;;;;;5.43;1.70;;;14.60;92.90;;;;;;5398837;26;20014;-82
2024/04/14 03:24:54;;;;;;;7.93;1.73;;;14.50;92.60;;;;;;5373111;26;20035;-83
2024/04/14 03:27:19;;;;;;;4.40;1.63;;;14.60;93.20;;;;;;5409771;26;20010;-82
2024/04/14 03:29:45;;;;;;;4.65;1.30;;;14.60;92.80;;;;;;5430258;26;21175;-82
2024/04/14 03:32:11;;;;;;;4.38;1.50;;;14.60;92.50;;;;;;5408953;26;20007;-83
2024/04/14 03:34:36;;;;;;;13.57;1.80;;;14.70;92.40;;;;;;5426305;26;20871;-82
2024/04/14 03:37:02;;;;;;;2.72;1.35;;;14.60;92.50;;;;;;5370382;26;19999;-82
2024/04/14 03:39:28;;;;;;;4.35;1.40;;;14.60;92.30;;;;;;5428788;26;20019;-82
2024/04/14 03:41:55;;;;;;;7.15;2.00;;;14.50;92.70;;;;;;5426784;26;20386;-82
2024/04/14 03:44:20;;;;;;;7.97;1.60;;;14.60;92.70;;;;;;5426638;26;19999;-82
2024/04/14 03:46:46;;;;;;;8.38;1.65;;;14.60;92.60;;;;;;5433311;26;20026;-82
2024/04/14 03:49:12;;;;;;;3.03;1.58;;;14.60;92.80;;;;;;5403798;26;20333;-82
2024/04/14 03:51:37;;;;;;;2.10;1.30;;;14.60;92.60;;;;;;5433341;26;20062;-82
2024/04/14 03:54:03;;;;;;;5.15;1.52;;;14.40;93.20;;;;;;5409435;26;19999;-82
2024/04/14 03:56:28;;;;;;;6.57;2.20;;;14.60;93.00;;;;;;5413904;26;20014;-82
2024/04/14 03:58:54;;;;;;;6.22;2.00;;;14.50;92.60;;;;;;5403173;26;20003;-82
2024/04/14 04:01:19;;;;;;;4.68;1.73;;;14.50;92.80;;;;;;5424851;26;20075;-82
2024/04/14 04:03:45;;;;;;;4.15;1.45;;;14.50;93.00;;;;;;5424754;26;20002;-82
2024/04/14 04:06:10;;;;;;;6.75;2.65;;;14.50;93.10;;;;;;5401973;26;20009;-82
2024/04/14 04:08:36;;;;;;;5.18;1.73;;;14.40;93.00;;;;;;5436119;26;20010;-83
2024/04/14 04:11:05;;;;;;;3.60;1.70;;;14.50;93.30;;;;;;5427087;26;20037;-82
2024/04/14 04:13:31;;;;;;;6.15;1.85;;;14.50;93.10;;;;;;5433030;26;20087;-83
2024/04/14 04:15:57;;;;;;;10.20;2.45;;;14.40;93.10;;;;;;5456676;26;20010;-82
2024/04/14 04:18:24;;;;;;;9.05;2.25;;;14.30;93.30;;;;;;5376577;26;19999;-82
2024/04/14 04:20:57;;;;;;;6.95;2.78;;;14.30;93.60;;;;;;5426834;26;20450;-82
2024/04/14 04:23:23;;;;;;;8.65;3.00;;;14.30;93.40;;;;;;5378722;26;20075;-82
2024/04/14 04:25:48;;;;;;;6.70;2.55;;;14.30;93.70;;;;;;5401336;26;20431;-82
2024/04/14 04:28:14;;;;;;;7.25;2.05;;;14.20;93.80;;;;;;5396304;26;19999;-82
2024/04/14 04:30:39;;;;;;;8.13;2.90;;;14.30;93.90;;;;;;5430511;26;20412;-82
2024/04/14 04:33:05;;;;;;;10.45;2.95;;;14.30;93.80;;;;;;5394730;26;20380;-82
2024/04/14 04:35:31;;;;;;;9.35;2.53;;;14.30;93.80;;;;;;5404787;26;19999;-82
2024/04/14 04:37:57;;;;;;;14.70;2.53;;;14.30;93.70;;;;;;5401522;26;20047;-82
2024/04/14 04:40:23;;;;;;;9.88;2.50;;;14.30;94.00;;;;;;5401317;26;19999;-82
2024/04/14 04:42:49;;;;;;;9.50;2.88;;;14.30;93.80;;;;;;5421234;26;20066;-82
2024/04/14 04:45:14;;;;;;;8.27;2.75;;;14.20;94.10;;;;;;5410737;26;20029;-82
2024/04/14 04:47:40;;;;;;;8.82;3.20;;;14.20;94.30;;;;;;5408461;26;20005;-82
2024/04/14 04:50:07;;;;;;;9.38;3.20;;;14.20;94.00;;;;;;5406356;26;20454;-82
2024/04/14 04:52:32;;;;;;;11.20;2.70;;;14.10;94.40;;;;;;5402451;26;19998;-81
2024/04/14 04:54:58;;;;;;;8.18;2.38;;;14.10;94.50;;;;;;5425822;26;20075;-82
2024/04/14 04:57:24;;;;;;;6.78;1.95;;;14.20;94.40;;;;;;5400987;26;20019;-82
2024/04/14 04:59:49;;;;;;;4.43;1.90;;;14.20;94.40;;;;;;5419165;26;20014;-82
2024/04/14 05:02:15;;;;;;;6.22;2.40;;;14.20;94.70;;;;;;5404915;26;20019;-82
2024/04/14 05:04:40;;;;;;;17.70;3.92;;;14.20;94.40;;;;;;5404721;26;20018;-79
2024/04/14 05:07:06;;;;;;;4.63;2.60;;;14.10;94.30;;;;;;5406012;26;20351;-80
2024/04/14 05:09:32;;;;;;;6.53;2.28;;;14.10;94.50;;;;;;5404466;26;20458;-80
2024/04/14 05:11:57;;;;;;;5.28;2.03;;;14.20;94.60;;;;;;5434629;26;20003;-80
2024/04/14 05:14:23;;;;;;;7.18;3.15;;;14.20;94.60;;;;;;5424448;26;19995;-81
2024/04/14 05:16:49;;;;;;;7.30;2.05;;;14.20;94.60;;;;;;5434583;26;19999;-79
2024/04/14 05:19:14;;;;;;;11.88;3.88;;;14.10;94.50;;;;;;5437042;26;20004;-80
2024/04/14 05:21:41;;;;;;;7.13;2.45;;;14.10;95.00;;;;;;5401964;26;20458;-80
2024/04/14 05:24:09;;;;;;;10.70;3.15;;;14.10;94.60;;;;;;5407383;26;20010;-81
2024/04/14 05:26:34;;;;;;;6.32;2.95;;;14.20;94.70;;;;;;5404211;26;20463;-80
2024/04/14 05:29:00;;;;;;;8.65;3.30;;;14.30;94.70;;;;;;5396649;26;20018;-80
2024/04/14 05:31:26;;;;;;;9.55;3.22;;;14.20;94.80;;;;;;5412195;26;20003;-80
2024/04/14 05:33:51;;;;;;;7.97;2.55;;;14.20;94.90;;;;;;5392067;26;20081;-80
2024/04/14 05:36:17;;;;;;;15.02;3.30;;;14.20;94.90;;;;;;5399626;26;20011;-80
2024/04/14 05:38:44;;;;;;;8.05;3.45;;;14.10;94.90;;;;;;5393969;26;20018;-80
2024/04/14 05:41:10;;;;;;;7.10;2.92;;;14.20;95.00;;;;;;5433292;26;20048;-80
2024/04/14 05:43:35;;;;;;;13.55;3.13;;;14.20;94.80;;;;;;5405788;26;20003;-81
2024/04/14 05:46:01;;;;;;;7.68;2.53;;;14.20;94.80;;;;;;5392387;26;20079;-80
2024/04/14 05:48:26;;;;;;;8.00;2.80;;;14.30;95.10;;;;;;5435411;26;20095;-80
2024/04/14 05:50:52;;;;;;;7.72;2.97;;;14.40;94.90;;;;;;5406061;26;20046;-80
2024/04/14 05:53:18;;;;;;;8.13;2.25;;;14.40;94.90;;;;;;5389457;26;19999;-80
2024/04/14 05:55:43;;;;;;;14.68;3.63;;;14.40;95.00;;;;;;5392420;26;20462;-80
2024/04/14 05:58:15;;;;;;;10.77;3.38;;;14.40;94.80;;;;;;5407555;26;20010;-81
2024/04/14 06:00:41;;;;;;;8.57;3.65;;;14.40;95.00;;;;;;5368900;26;20011;-80
2024/04/14 06:03:07;;;;;;;5.25;2.70;;;14.40;95.10;;;;;;5405376;26;20017;-81
2024/04/14 06:05:33;;;;;;;12.43;3.30;;;14.40;95.20;;;;;;5392607;26;20003;-80
2024/04/14 06:07:58;;;;;;;10.20;4.00;;;14.50;95.30;;;;;;5401525;26;20095;-80
2024/04/14 06:10:24;;;;;;;9.07;2.83;;;14.50;95.20;;;;;;5400907;26;20003;-79
2024/04/14 06:12:51;;;;;;;8.70;3.20;;;14.60;95.20;;;;;;5432355;26;20039;-79
2024/04/14 06:15:17;;;;;;;9.80;3.83;;;14.60;95.20;;;;;;5438022;26;20022;-79
2024/04/14 06:17:42;;;;;;;10.27;2.40;;;14.60;95.10;;;;;;5433470;26;20103;-78
2024/04/14 06:20:08;;;;;;;12.50;3.92;;;14.70;95.10;;;;;;5425200;26;20104;-79
2024/04/14 06:22:35;;;;;;;10.35;3.28;;;14.70;95.00;;;;;;5400930;26;20052;-79
2024/04/14 06:25:00;;;;;;;11.60;3.97;;;14.80;95.20;;;;;;5431646;26;20010;-78
2024/04/14 06:27:26;;;;;;;9.43;2.85;;;14.80;95.20;;;;;;5432547;26;20081;-80
2024/04/14 06:29:51;;;;;;;13.70;3.20;;;14.90;95.40;;;;;;5405204;26;20009;-79
2024/04/14 06:32:17;;;;;;;15.68;3.53;;;14.90;95.40;;;;;;5425248;26;20013;-79
2024/04/14 06:34:42;;;;;;;6.60;2.85;;;14.90;95.30;;;;;;5361834;26;20011;-79
2024/04/14 06:37:11;;;;;;;8.73;3.28;;;15.00;95.30;;;;;;5372441;26;20347;-80
2024/04/14 06:39:36;;;;;;;7.43;2.47;;;15.00;95.40;;;;;;5425829;26;20331;-79
2024/04/14 06:42:05;;;;;;;8.32;3.00;;;15.10;95.30;;;;;;5430442;26;20071;-79
2024/04/14 06:44:30;;;;;;;10.70;3.40;;;15.10;95.30;;;;;;5408453;26;20014;-79
2024/04/14 06:46:57;;;;;;;8.07;3.38;;;15.20;95.40;;;;;;5398984;26;20000;-79
2024/04/14 06:49:23;;;;;;;9.13;2.92;;;15.20;95.40;;;;;;5405592;26;20553;-79
2024/04/14 06:51:48;;;;;;;11.15;3.13;;;15.20;95.30;;;;;;5421222;26;20007;-79
2024/04/14 06:54:14;;;;;;;8.70;3.67;;;15.30;95.60;;;;;;5404327;26;19999;-80
2024/04/14 06:56:39;;;;;;;9.10;3.15;;;15.30;95.50;;;;;;5432913;26;20010;-79
2024/04/14 06:59:05;;;;;;;10.60;4.13;;;15.40;95.50;;;;;;5403614;26;20003;-79
2024/04/14 07:01:31;;;;;;;9.60;2.88;;;15.50;95.60;;;;;;5424819;26;20451;-80
2024/04/14 07:03:57;;;;;;;11.50;3.63;;;15.50;95.50;;;;;;5403495;26;20030;-79
2024/04/14 07:06:22;;;;;;;6.72;2.45;;;15.60;95.40;;;;;;5427952;26;19999;-79
2024/04/14 07:08:48;;;;;;;10.93;3.42;;;15.60;95.50;;;;;;5400500;26;20038;-79
2024/04/14 07:11:13;;;;;;;12.80;3.10;;;15.70;95.20;;;;;;5429412;26;20000;-79
2024/04/14 07:13:39;;;;;;;15.55;3.83;;;15.70;95.50;;;;;;5393696;26;20017;-79
2024/04/14 07:16:05;;;;;;;10.38;3.30;;;15.70;95.00;;;;;;5381224;26;20021;-80
2024/04/14 07:18:31;;;;;;;10.38;3.75;;;15.60;95.00;;;;;;5404312;26;19999;-80
2024/04/14 07:21:03;;;;;;;9.60;2.63;;;15.80;95.50;;;;;;5365517;26;20007;-79
2024/04/14 07:23:31;;;;;;;8.05;2.58;;;15.90;95.40;;;;;;5397614;26;20077;-78
2024/04/14 07:25:58;;;;;;;6.93;2.50;;;16.00;95.20;;;;;;5397034;26;19999;-79
2024/04/14 07:28:31;;;;;;;10.45;4.18;;;16.10;94.90;;;;;;5431424;26;20071;-79
2024/04/14 07:30:56;;;;;;;11.05;4.30;;;16.10;94.90;;;;;;5392692;26;20003;-80
2024/04/14 07:33:22;;;;;;;10.82;4.38;;;16.30;95.30;;;;;;5418222;26;20495;-80
2024/04/14 07:35:48;;;;;;;12.85;3.95;;;16.50;94.90;;;;;;5407998;26;20427;-80
2024/04/14 07:38:13;;;;;;;8.80;3.55;;;16.60;95.00;;;;;;5430017;26;20493;-80
2024/04/14 07:40:40;;;;;;;9.27;3.22;;;16.70;95.30;;;;;;5411451;26;20339;-80
2024/04/14 07:43:07;;;;;;;9.88;4.05;;;16.90;94.70;;;;;;5406564;26;20458;-80
2024/04/14 07:45:33;;;;;;;10.60;3.35;;;17.10;94.00;;;;;;5400893;26;20011;-78
2024/04/14 07:47:59;;;;;;;9.30;3.20;;;17.10;94.50;;;;;;5400429;26;19999;-79
2024/04/14 07:50:25;;;;;;;8.77;2.47;;;17.20;94.60;;;;;;5401406;26;20273;-79
2024/04/14 07:52:50;;;;;;;12.48;3.08;;;17.30;94.90;;;;;;5403243;26;20005;-79
2024/04/14 07:55:16;;;;;;;6.32;1.92;;;17.40;94.90;;;;;;5403264;26;20010;-79
2024/04/14 07:57:41;;;;;;;9.10;3.88;;;17.40;93.50;;;;;;5377010;26;19995;-79
2024/04/14 08:00:08;;;;;;;6.88;2.72;;;17.50;93.80;;;;;;5399149;26;20035;-79
2024/04/14 08:02:33;;;;;;;7.60;2.75;;;17.60;93.40;;;;;;5425501;26;20407;-78
2024/04/14 08:04:59;;;;;;;7.00;2.65;;;17.80;93.70;;;;;;5403396;26;20054;-79
2024/04/14 08:07:24;;;;;;;6.93;3.38;;;17.90;93.90;;;;;;5375907;26;19999;-78
2024/04/14 08:09:50;;;;;;;8.55;2.20;;;17.90;92.80;;;;;;5425251;26;20122;-79
2024/04/14 08:12:15;;;;;;;5.55;2.13;;;18.00;93.10;;;;;;5429076;26;20010;-79
2024/04/14 08:14:41;;;;;;;7.00;2.28;;;18.10;93.10;;;;;;5396895;26;20086;-78
2024/04/14 08:17:06;;;;;;;7.18;2.47;;;18.20;93.40;;;;;;5421015;26;20007;-79
2024/04/14 08:19:32;;;;;;;8.38;2.67;;;18.20;92.70;;;;;;5405078;26;20376;-79
2024/04/14 08:21:58;;;;;;;4.78;1.98;;;18.30;92.70;;;;;;5396238;26;19995;-79
2024/04/14 08:24:24;;;;;;;6.88;1.80;;;18.50;92.30;;;;;;5376414;26;20047;-78
2024/04/14 08:26:52;;;;;;;5.72;2.60;;;18.60;91.90;;;;;;5377195;26;20053;-79
2024/04/14 08:29:18;;;;;;;9.93;2.53;;;18.60;92.30;;;;;;5401231;26;20018;-79
2024/04/14 08:31:43;;;;;;;6.80;1.95;;;18.80;92.10;;;;;;5395638;26;20070;-79
2024/04/14 08:34:09;;;;;;;9.65;2.72;;;18.90;91.40;;;;;;5374915;26;21024;-79
2024/04/14 08:36:35;;;;;;;6.03;2.10;;;18.70;91.20;;;;;;5371116;26;20433;-79
2024/04/14 08:39:00;;;;;;;8.85;2.80;;;18.90;91.50;;;;;;5371638;26;20042;-80
2024/04/14 08:41:26;;;;;;;5.97;1.90;;;18.90;90.80;;;;;;5400458;26;20360;-80
2024/04/14 08:43:52;;;;;;;8.82;2.28;;;18.90;91.40;;;;;;5395522;26;20767;-80
2024/04/14 08:46:18;;;;;;;7.35;3.53;;;19.00;91.20;;;;;;5369439;26;20042;-80
2024/04/14 08:48:44;;;;;;;8.60;3.05;;;19.20;91.20;;;;;;5435153;26;20014;-80
2024/04/14 08:51:09;;;;;;;8.20;2.95;;;19.40;90.50;;;;;;5397857;26;20014;-80
2024/04/14 08:53:35;;;;;;;8.63;3.53;;;19.40;91.00;;;;;;5433137;26;20376;-81
2024/04/14 08:56:01;;;;;;;7.88;1.95;;;19.60;90.90;;;;;;5431227;26;20485;-80
2024/04/14 08:58:26;;;;;;;8.63;2.78;;;19.80;91.00;;;;;;5433105;26;20406;-80
2024/04/14 09:00:57;;;;;;;5.97;2.13;;;19.90;91.30;;;;;;5406886;26;20042;-80
2024/04/14 09:03:23;;;;;;;7.43;2.40;;;20.10;90.10;;;;;;5403737;26;20030;-80
2024/04/14 09:05:48;;;;;;;5.97;2.22;;;20.20;90.30;;;;;;5410517;26;19996;-80
2024/04/14 09:08:14;;;;;;;8.68;2.60;;;20.30;90.40;;;;;;5427605;26;20084;-80
2024/04/14 09:10:40;;;;;;;6.28;1.58;;;20.30;90.10;;;;;;5423578;26;20347;-79
2024/04/14 09:13:07;;;;;;;2.67;1.20;;;20.50;91.00;;;;;;5407755;26;20010;-80
2024/04/14 09:15:40;;;;;;;5.40;1.65;;;20.60;88.10;;;;;;5424307;26;19999;-80
2024/04/14 09:18:06;;;;;;;4.95;1.40;;;20.60;87.20;;;;;;5379448;26;20010;-79
2024/04/14 09:20:32;;;;;;;5.85;1.95;;;20.50;87.60;;;;;;5407575;26;19999;-80
2024/04/14 09:22:58;;;;;;;6.90;1.95;;;20.70;88.40;;;;;;5432461;26;20036;-80
2024/04/14 09:25:24;;;;;;;8.98;2.42;;;20.90;88.10;;;;;;5404460;26;20143;-80
2024/04/14 09:27:50;;;;;;;7.97;1.67;;;21.00;86.80;;;;;;5397345;26;20015;-81
2024/04/14 09:30:16;;;;;;;8.48;1.80;;;21.10;86.10;;;;;;5431492;26;19999;-79
2024/04/14 09:32:42;;;;;;;10.45;2.42;;;21.10;86.80;;;;;;5432235;26;20011;-80
2024/04/14 09:35:12;;;;;;;6.13;1.67;;;21.20;86.60;;;;;;5400085;26;20011;-79
2024/04/14 09:37:40;;;;;;;6.75;2.22;;;21.20;84.00;;;;;;5438228;26;19999;-79
2024/04/14 09:40:09;;;;;;;8.23;3.10;;;21.30;84.40;;;;;;5374817;26;20018;-79
2024/04/14 09:42:37;;;;;;;7.13;2.88;;;21.50;82.60;;;;;;5396857;26;20540;-80
2024/04/14 09:45:04;;;;;;;3.75;2.53;;;21.50;83.30;;;;;;5429702;26;19999;-78
2024/04/14 09:47:30;;;;;;;4.95;2.45;;;21.60;85.10;;;;;;5380586;26;21752;-79
2024/04/14 09:49:55;;;;;;;4.53;1.98;;;21.60;85.00;;;;;;5399723;26;20013;-79
2024/04/14 09:52:23;;;;;;;5.85;2.22;;;21.60;84.90;;;;;;5427770;26;20012;-78
2024/04/14 09:54:50;;;;;;;3.35;1.85;;;21.50;82.50;;;;;;5429016;26;21688;-79
2024/04/14 09:57:16;;;;;;;8.23;2.13;;;21.40;83.20;;;;;;5399823;26;20007;-79
2024/04/14 09:59:42;;;;;;;5.55;1.85;;;21.50;83.40;;;;;;5401186;26;20002;-79
2024/04/14 10:02:13;;;;;;;9.95;1.92;;;21.60;82.80;;;;;;5407418;26;20339;-79
2024/04/14 10:04:42;;;;;;;5.85;2.28;;;21.60;83.20;;;;;;5378028;26;20003;-79
2024/04/14 10:07:08;;;;;;;5.78;1.83;;;21.60;84.30;;;;;;5370369;26;20014;-80
2024/04/14 10:09:34;;;;;;;4.68;1.52;;;21.60;82.40;;;;;;5431408;26;20097;-79
2024/04/14 10:12:00;;;;;;;3.53;1.73;;;21.70;83.50;;;;;;5398416;26;20004;-79
2024/04/14 10:14:27;;;;;;;8.00;2.33;;;21.90;82.90;;;;;;5405025;26;20014;-79
2024/04/14 10:16:56;;;;;;;5.20;1.25;;;22.10;82.00;;;;;;5399250;26;20447;-78
2024/04/14 10:19:21;;;;;;;5.82;2.60;;;22.20;81.60;;;;;;5425471;26;20310;-79
2024/04/14 10:21:47;;;;;;;9.60;1.95;;;22.20;80.70;;;;;;5408528;26;20014;-80
2024/04/14 10:24:13;;;;;;;5.95;1.92;;;22.10;81.00;;;;;;5372247;26;20010;-80
2024/04/14 10:26:38;;;;;;;4.35;1.65;;;22.10;80.10;;;;;;5381723;26;20437;-79
2024/04/14 10:29:06;;;;;;;6.68;1.70;;;22.20;80.00;;;;;;5409388;26;20474;-80
2024/04/14 10:31:34;;;;;;;5.00;1.77;;;21.90;80.80;;;;;;5375426;26;20007;-79
2024/04/14 10:34:23;;;;;;;4.55;1.80;;;22.00;79.30;;;;;;5405094;26;20451;-80
2024/04/14 10:36:58;;;;;;;6.55;1.30;;;22.00;79.20;;;;;;5417253;26;20350;-80
2024/04/14 10:39:24;;;;;;;4.53;1.23;;;21.90;79.60;;;;;;5407720;26;20007;-79
2024/04/14 10:41:50;;;;;;;6.20;1.80;;;21.90;80.00;;;;;;5438506;26;20018;-79
2024/04/14 10:44:16;;;;;;;3.88;1.63;;;22.00;77.90;;;;;;5425705;26;20003;-79
2024/04/14 10:46:48;;;;;;;6.75;1.35;;;22.00;77.90;;;;;;5380222;26;20342;-81
2024/04/14 10:49:14;;;;;;;3.45;1.10;;;22.00;79.50;;;;;;5404514;26;20021;-80
2024/04/14 10:51:40;;;;;;;4.30;1.40;;;22.20;77.10;;;;;;5428921;26;20459;-79
2024/04/14 10:54:06;;;;;;;3.28;1.35;;;22.30;76.90;;;;;;5367103;26;21106;-80
2024/04/14 10:56:32;;;;;;;5.75;1.58;;;22.30;77.30;;;;;;5429396;26;20000;-79
2024/04/14 10:58:57;;;;;;;5.55;1.10;;;22.40;78.30;;;;;;5405163;26;20346;-79
2024/04/14 11:01:23;;;;;;;4.10;1.10;;;22.30;78.00;;;;;;5381046;26;19999;-79
2024/04/14 11:03:49;;;;;;;2.90;1.30;;;22.10;75.70;;;;;;5377262;26;20579;-79
2024/04/14 11:06:14;;;;;;;3.67;1.33;;;22.20;78.50;;;;;;5392923;26;20018;-79
2024/04/14 11:08:40;;;;;;;2.90;1.00;;;22.40;77.70;;;;;;5371225;26;20055;-79
2024/04/14 11:11:06;;;;;;;4.57;1.27;;;22.50;75.00;;;;;;5398556;26;20000;-79
2024/04/14 11:13:32;;;;;;;4.85;0.95;;;22.30;71.90;;;;;;5433418;26;19999;-79
2024/04/14 11:15:57;;;;;;;4.68;1.17;;;22.20;74.00;;;;;;5400422;26;20589;-79
2024/04/14 11:18:29;;;;;;;4.00;0.95;;;22.20;74.00;;;;;;5408134;26;19999;-79
2024/04/14 11:20:55;;;;;;;4.20;1.48;;;22.20;76.80;;;;;;5431232;26;20011;-79
2024/04/14 11:23:21;;;;;;;2.97;1.00;;;22.30;75.70;;;;;;5404028;26;20672;-79
2024/04/14 11:25:47;;;;;;;4.18;1.48;;;22.50;76.70;;;;;;5409422;26;20006;-78
2024/04/14 11:28:12;;;;;;;5.18;1.23;;;22.60;77.20;;;;;;5417689;26;20399;-79
2024/04/14 11:30:38;;;;;;;5.88;1.20;;;22.40;77.30;;;;;;5405293;26;19999;-79
2024/04/14 11:33:04;;;;;;;5.82;1.30;;;22.40;76.10;;;;;;5399882;26;20373;-79
2024/04/14 11:35:30;;;;;;;3.92;1.10;;;22.30;73.60;;;;;;5435999;26;20156;-78
2024/04/14 11:37:56;;;;;;;7.47;1.10;;;22.40;72.40;;;;;;5404826;26;19999;-80
2024/04/14 11:40:22;;;;;;;4.30;1.02;;;22.40;71.80;;;;;;5376740;26;19999;-80
2024/04/14 11:42:48;;;;;;;4.63;1.73;;;22.50;70.00;;;;;;5401839;26;20003;-80
2024/04/14 11:45:14;;;;;;;6.35;1.23;;;22.20;73.60;;;;;;5393538;26;20454;-79
2024/04/14 11:47:39;;;;;;;4.15;1.20;;;22.50;71.70;;;;;;5392547;26;20011;-79
2024/04/14 11:50:07;;;;;;;3.40;0.98;;;22.60;72.20;;;;;;5427323;26;20010;-78
2024/04/14 11:52:32;;;;;;;7.55;2.22;;;22.60;73.60;;;;;;5370066;26;20015;-79
2024/04/14 11:54:58;;;;;;;2.03;0.70;;;22.60;70.90;;;;;;5428787;26;19991;-79
2024/04/14 11:57:23;;;;;;;1.90;0.70;;;22.30;70.40;;;;;;5434833;26;20339;-80
2024/04/14 11:59:52;;;;;;;4.75;1.00;;;22.40;71.60;;;;;;5403761;26;20046;-80
2024/04/14 12:02:18;;;;;;;7.28;1.13;;;22.40;72.00;;;;;;5394871;26;20408;-80
2024/04/14 12:04:44;;;;;;;4.45;0.50;;;22.50;72.80;;;;;;5403965;26;21544;-79
2024/04/14 12:07:09;;;;;;;5.30;1.38;;;22.60;70.20;;;;;;5434190;26;20014;-80
2024/04/14 12:09:35;;;;;;;2.15;0.73;;;22.70;69.40;;;;;;5424737;26;20076;-79
2024/04/14 12:12:01;;;;;;;4.30;1.08;;;22.80;68.50;;;;;;5425385;26;20048;-79
2024/04/14 12:14:27;;;;;;;6.85;1.10;;;23.10;69.30;;;;;;5402967;26;19998;-79
2024/04/14 12:16:56;;;;;;;5.03;1.35;;;23.20;69.20;;;;;;5418858;26;20019;-80
2024/04/14 12:19:21;;;;;;;2.88;1.02;;;23.10;68.80;;;;;;5435070;26;20003;-79
2024/04/14 12:21:47;;;;;;;3.55;1.23;;;23.20;71.50;;;;;;5403791;26;20006;-80
2024/04/14 12:24:13;;;;;;;4.25;1.10;;;23.40;69.90;;;;;;5401717;26;19998;-80
2024/04/14 12:26:38;;;;;;;3.15;0.93;;;23.50;70.70;;;;;;5407644;26;20017;-80
2024/04/14 12:29:04;;;;;;;4.45;1.20;;;23.70;67.80;;;;;;5435383;26;19999;-79
2024/04/14 12:31:29;;;;;;;4.55;0.90;;;23.80;68.30;;;;;;5421756;26;20011;-79
2024/04/14 12:33:55;;;;;;;4.70;1.13;;;23.70;67.90;;;;;;5373749;26;20075;-79
2024/04/14 12:36:20;;;;;;;5.97;1.58;;;23.80;66.20;;;;;;5424804;26;20006;-79
2024/04/14 12:38:46;;;;;;;3.67;0.85;;;23.80;67.10;;;;;;5412001;26;20043;-79